TFFFTNCM

Guest
Details From TFFF - Martinique/Aime Cesaire Intl
To TNCM - St Maarten - Princess Juliana Intl
Flight Number -
Tags generated
Created
Modified
Stats Distance 245 nm / 454 km
Max Altitude 28,900 ft / 8,809 m
Waypoints 4
Social Downloads 4
Likes 0
Share

Download

Looking for another format? Having issues loading an existing format? Contact us
Advertisement - Login to hide

Notes

Basic altitude profile: - Ascent Rate: 2500ft/min - Ascent Speed: 250kts - Cruise Altitude: 8000ft - Cruise Speed: 420kts - Descent Rate: 1500ft/min - Descent Speed: 250kts Options: - Use NATs: yes - Use PACOTS: yes - Use low airways: yes - Use high airways: yes

Route

TFFF PPR A517 BIMBO TNCM

ID Type Via Altitude (ft/m) Position (lat/lon) Dist (leg/tot) Name
O TFFF APT - 0 / 0 14.59103 / -61.00317 - / 0 nm Martinique/Aime Cesaire Intl
PPR DME - 28,900 / 8,809 16.26519 / -61.54014 105 / 105 nm POINTE A PITRE VOR-DME
BIMBO FIX A517 (AWY-LO) 22,000 / 6,706 16.62667 / -61.96028 32 / 137 nm
O TNCM APT - 0 / 0 18.04089 / -63.10897 107 / 245 nm St Maarten - Princess Juliana Intl

Altitude Profile

Advertisement - Login to hide

Weather


0- 5 10 15 20 25 30 35+ Temperature / °C

Clouds and Precipitation
Forecast for 2020-10-20 00:00 UTC. Updated 6 hours ago

Ground ~20,000 ft ~40,000 ft Winds

TFFF

Details ICAO TFFF (FDF)
Name Martinique Aime Cesaire Intl
Region France (Guadeloupe, Martinique, Saint Barthélemy, Saint Martin)
Timezone America/Martinique (UTC-4.0)
Stats Elevation 16 ft / 5 m (AMSL)
Location 14.590800° -61.004600°
Runways 1
Magnetic Variation 15.145° W

METAR

TFFF 200300Z AUTO VRB02KT CAVOK 24/23 Q1010

Decode

TAF

TAF TFFF 192240Z 1922/2018 CNL

Decode

Departure Runways

ID Width Length Bearing (true/mag) Surface Threshold Overrun Markings Lighting
10 148 ft / 45 m 9,852 ft / 3,003 m 79.94° / 95.09° ASPHALT 0 ft / 0 m 52 ft / 16 m PREC-APP EDGE THRESHOLD ALSF-II REIL-OMNI
28 148 ft / 45 m 9,852 ft / 3,003 m 259.95° / 275.10° ASPHALT 817 ft / 249 m 994 ft / 303 m PREC-APP EDGE THRESHOLD ALSF-II REIL-OMNI

TNCM

Details ICAO TNCM (SXM)
Name Princess Juliana Intl
Region Caribbean Netherlands, Aruba, Curaçao, Sint Maarten
Timezone Unknown
Stats Elevation 14 ft / 4 m (AMSL)
Location 18.040900° -63.108900°
Runways 1
Magnetic Variation 14.403° W

METAR

TNCM 200300Z 27009KT 9999 FEW022 28/22 Q1010

Decode

TAF

TAF TNCM 192332Z 2000/2024 29005KT P6SM FEW018 FM200400 VRB03KT P6SM SCT018 FM201400 28008KT P6SM FEW022

Decode

Destination Runways

ID Width Length Bearing (true/mag) Surface Threshold Overrun Markings Lighting
10 148 ft / 45 m 7,553 ft / 2,302 m 81.44° / 95.84° ASPHALT 331 ft / 101 m 164 ft / 50 m PREC-APP EDGE THRESHOLD REIL-OMNI
28 148 ft / 45 m 7,553 ft / 2,302 m 261.45° / 275.85° ASPHALT 0 ft / 0 m 200 ft / 61 m APP EDGE THRESHOLD

Popular Alternatives